sensor_id;sensor_type;location;lat;lon;timestamp;pressure;altitude;pressure_sealevel;temperature;humidity
73284;BME280;61519;60.050;18.582;2023-09-07T00:00:46;102693.72;;;11.34;57.22
73284;BME280;61519;60.050;18.582;2023-09-07T00:03:13;102698.06;;;11.35;57.39
73284;BME280;61519;60.050;18.582;2023-09-07T00:05:38;102702.66;;;11.33;57.39
73284;BME280;61519;60.050;18.582;2023-09-07T00:08:04;102644.56;;;11.03;57.53
73284;BME280;61519;60.050;18.582;2023-09-07T00:10:29;102688.97;;;11.28;57.39
73284;BME280;61519;60.050;18.582;2023-09-07T00:12:55;102697.91;;;11.27;57.67
73284;BME280;61519;60.050;18.582;2023-09-07T00:15:20;102696.81;;;11.30;57.82
73284;BME280;61519;60.050;18.582;2023-09-07T00:17:46;102699.56;;;11.28;57.47
73284;BME280;61519;60.050;18.582;2023-09-07T00:20:12;102692.16;;;11.22;57.58
73284;BME280;61519;60.050;18.582;2023-09-07T00:22:41;102696.22;;;11.26;57.72
73284;BME280;61519;60.050;18.582;2023-09-07T00:25:06;102672.28;;;11.18;57.73
73284;BME280;61519;60.050;18.582;2023-09-07T00:27:35;102671.56;;;11.16;57.75
73284;BME280;61519;60.050;18.582;2023-09-07T00:30:02;102680.91;;;11.20;57.77
73284;BME280;61519;60.050;18.582;2023-09-07T00:32:29;102690.50;;;11.21;57.74
73284;BME280;61519;60.050;18.582;2023-09-07T00:34:55;102680.63;;;11.14;57.90
73284;BME280;61519;60.050;18.582;2023-09-07T00:37:20;102666.41;;;11.05;58.03
73284;BME280;61519;60.050;18.582;2023-09-07T00:39:46;102683.66;;;11.09;57.78
73284;BME280;61519;60.050;18.582;2023-09-07T00:42:11;102678.06;;;11.03;57.85
73284;BME280;61519;60.050;18.582;2023-09-07T00:44:37;102687.13;;;11.10;57.88
73284;BME280;61519;60.050;18.582;2023-09-07T00:47:02;102660.78;;;10.89;57.90
73284;BME280;61519;60.050;18.582;2023-09-07T00:49:28;102658.28;;;10.88;58.01
73284;BME280;61519;60.050;18.582;2023-09-07T00:51:53;102686.63;;;10.95;57.83
73284;BME280;61519;60.050;18.582;2023-09-07T00:54:19;102683.56;;;10.90;57.78
73284;BME280;61519;60.050;18.582;2023-09-07T00:56:45;102698.47;;;11.01;57.97
73284;BME280;61519;60.050;18.582;2023-09-07T00:59:11;102694.69;;;10.94;57.85
73284;BME280;61519;60.050;18.582;2023-09-07T01:01:36;102687.50;;;10.96;57.87
73284;BME280;61519;60.050;18.582;2023-09-07T01:04:02;102683.44;;;10.92;57.82
73284;BME280;61519;60.050;18.582;2023-09-07T01:06:40;102684.28;;;10.92;57.95
73284;BME280;61519;60.050;18.582;2023-09-07T01:09:18;102687.75;;;10.93;58.11
73284;BME280;61519;60.050;18.582;2023-09-07T01:11:44;102678.81;;;10.84;58.00
73284;BME280;61519;60.050;18.582;2023-09-07T01:14:10;102691.63;;;10.89;58.00
73284;BME280;61519;60.050;18.582;2023-09-07T01:16:36;102688.41;;;10.85;58.11
73284;BME280;61519;60.050;18.582;2023-09-07T01:19:07;102677.41;;;10.80;57.98
73284;BME280;61519;60.050;18.582;2023-09-07T01:21:37;102676.44;;;10.81;57.90
73284;BME280;61519;60.050;18.582;2023-09-07T01:24:08;102683.66;;;10.79;58.00
73284;BME280;61519;60.050;18.582;2023-09-07T01:26:34;102680.19;;;10.79;58.05
73284;BME280;61519;60.050;18.582;2023-09-07T01:29:01;102681.16;;;10.78;57.93
73284;BME280;61519;60.050;18.582;2023-09-07T01:31:26;102657.03;;;10.61;58.04
73284;BME280;61519;60.050;18.582;2023-09-07T01:33:53;102664.56;;;10.66;58.14
73284;BME280;61519;60.050;18.582;2023-09-07T01:36:19;102657.88;;;10.62;58.13
73284;BME280;61519;60.050;18.582;2023-09-07T01:38:44;102673.88;;;10.70;58.23
73284;BME280;61519;60.050;18.582;2023-09-07T01:41:09;102665.06;;;10.60;58.15
73284;BME280;61519;60.050;18.582;2023-09-07T01:43:35;102681.22;;;10.67;58.16
73284;BME280;61519;60.050;18.582;2023-09-07T01:46:01;102678.75;;;10.65;58.11
73284;BME280;61519;60.050;18.582;2023-09-07T01:48:26;102672.28;;;10.58;58.11
73284;BME280;61519;60.050;18.582;2023-09-07T01:50:53;102672.03;;;10.61;57.96
73284;BME280;61519;60.050;18.582;2023-09-07T01:53:18;102677.56;;;10.58;58.20
73284;BME280;61519;60.050;18.582;2023-09-07T01:55:44;102675.91;;;10.57;58.07
73284;BME280;61519;60.050;18.582;2023-09-07T01:58:10;102677.84;;;10.55;58.07
73284;BME280;61519;60.050;18.582;2023-09-07T02:00:38;102682.28;;;10.54;58.18
73284;BME280;61519;60.050;18.582;2023-09-07T02:03:07;102648.44;;;10.39;58.21
73284;BME280;61519;60.050;18.582;2023-09-07T02:05:32;102668.19;;;10.44;58.22
73284;BME280;61519;60.050;18.582;2023-09-07T02:07:58;102667.75;;;10.39;58.18
73284;BME280;61519;60.050;18.582;2023-09-07T02:10:24;102670.69;;;10.46;58.30
73284;BME280;61519;60.050;18.582;2023-09-07T02:12:49;102657.44;;;10.36;57.99
73284;BME280;61519;60.050;18.582;2023-09-07T02:15:15;102668.03;;;10.46;58.42
73284;BME280;61519;60.050;18.582;2023-09-07T02:17:40;102673.31;;;10.46;58.21
73284;BME280;61519;60.050;18.582;2023-09-07T02:20:11;102658.53;;;10.34;58.29
73284;BME280;61519;60.050;18.582;2023-09-07T02:22:37;102668.56;;;10.40;58.25
73284;BME280;61519;60.050;18.582;2023-09-07T02:25:03;102674.44;;;10.43;58.26
73284;BME280;61519;60.050;18.582;2023-09-07T02:27:31;102650.44;;;10.26;58.23
73284;BME280;61519;60.050;18.582;2023-09-07T02:29:57;102663.81;;;10.34;58.28
73284;BME280;61519;60.050;18.582;2023-09-07T02:32:22;102621.75;;;10.12;58.22
73284;BME280;61519;60.050;18.582;2023-09-07T02:34:47;102667.75;;;10.39;58.40
73284;BME280;61519;60.050;18.582;2023-09-07T02:37:13;102676.63;;;10.38;58.26
73284;BME280;61519;60.050;18.582;2023-09-07T02:39:41;102673.13;;;10.38;58.17
73284;BME280;61519;60.050;18.582;2023-09-07T02:42:06;102644.56;;;10.22;58.38
73284;BME280;61519;60.050;18.582;2023-09-07T02:44:32;102604.81;;;9.94;58.69
73284;BME280;61519;60.050;18.582;2023-09-07T02:46:57;102667.16;;;10.36;58.58
73284;BME280;61519;60.050;18.582;2023-09-07T02:49:22;102672.41;;;10.36;58.45
73284;BME280;61519;60.050;18.582;2023-09-07T02:51:48;102618.91;;;10.04;58.49
73284;BME280;61519;60.050;18.582;2023-09-07T02:54:13;102674.25;;;10.35;58.64
73284;BME280;61519;60.050;18.582;2023-09-07T02:56:38;102669.06;;;10.34;58.55
73284;BME280;61519;60.050;18.582;2023-09-07T02:59:04;102675.34;;;10.33;58.70
73284;BME280;61519;60.050;18.582;2023-09-07T03:01:30;102669.34;;;10.31;58.76
73284;BME280;61519;60.050;18.582;2023-09-07T03:03:56;102678.09;;;10.31;58.67
73284;BME280;61519;60.050;18.582;2023-09-07T03:06:21;102614.38;;;9.95;58.72
73284;BME280;61519;60.050;18.582;2023-09-07T03:08:46;102671.28;;;10.29;59.01
73284;BME280;61519;60.050;18.582;2023-09-07T03:11:12;102655.97;;;10.23;58.96
73284;BME280;61519;60.050;18.582;2023-09-07T03:13:37;102673.66;;;10.32;58.83
73284;BME280;61519;60.050;18.582;2023-09-07T03:16:03;102640.78;;;10.15;58.97
73284;BME280;61519;60.050;18.582;2023-09-07T03:18:30;102658.47;;;10.24;58.98
73284;BME280;61519;60.050;18.582;2023-09-07T03:20:58;102671.28;;;10.29;59.27
73284;BME280;61519;60.050;18.582;2023-09-07T03:23:24;102671.00;;;10.32;58.99
73284;BME280;61519;60.050;18.582;2023-09-07T03:25:49;102670.19;;;10.31;59.06
73284;BME280;61519;60.050;18.582;2023-09-07T03:28:15;102655.63;;;10.16;59.05
73284;BME280;61519;60.050;18.582;2023-09-07T03:30:41;102670.34;;;10.30;59.05
73284;BME280;61519;60.050;18.582;2023-09-07T03:33:06;102667.69;;;10.30;58.99
73284;BME280;61519;60.050;18.582;2023-09-07T03:35:32;102667.69;;;10.30;59.11
73284;BME280;61519;60.050;18.582;2023-09-07T03:37:57;102648.13;;;10.12;59.11
73284;BME280;61519;60.050;18.582;2023-09-07T03:40:23;102683.53;;;10.30;59.00
73284;BME280;61519;60.050;18.582;2023-09-07T03:42:49;102679.91;;;10.31;59.12
73284;BME280;61519;60.050;18.582;2023-09-07T03:45:14;102679.91;;;10.31;58.86
73284;BME280;61519;60.050;18.582;2023-09-07T03:47:40;102656.09;;;10.21;59.13
73284;BME280;61519;60.050;18.582;2023-09-07T03:50:06;102687.53;;;10.34;58.92
73284;BME280;61519;60.050;18.582;2023-09-07T03:52:31;102662.94;;;10.24;59.29
73284;BME280;61519;60.050;18.582;2023-09-07T03:54:57;102668.13;;;10.35;59.22
73284;BME280;61519;60.050;18.582;2023-09-07T03:57:26;102667.84;;;10.38;59.26
73284;BME280;61519;60.050;18.582;2023-09-07T03:59:52;102671.91;;;10.42;59.35
73284;BME280;61519;60.050;18.582;2023-09-07T04:02:17;102665.81;;;10.41;59.43
73284;BME280;61519;60.050;18.582;2023-09-07T04:04:43;102660.41;;;10.43;59.56
73284;BME280;61519;60.050;18.582;2023-09-07T04:07:09;102665.59;;;10.54;59.62
73284;BME280;61519;60.050;18.582;2023-09-07T04:09:35;102656.13;;;10.51;59.72
73284;BME280;61519;60.050;18.582;2023-09-07T04:12:00;102661.59;;;10.59;59.67
73284;BME280;61519;60.050;18.582;2023-09-07T04:14:26;102659.28;;;10.66;59.63
73284;BME280;61519;60.050;18.582;2023-09-07T04:16:51;102667.09;;;10.77;59.73
73284;BME280;61519;60.050;18.582;2023-09-07T04:19:16;102651.53;;;10.74;59.78
73284;BME280;61519;60.050;18.582;2023-09-07T04:21:42;102640.16;;;10.74;59.76
73284;BME280;61519;60.050;18.582;2023-09-07T04:24:07;102634.19;;;10.81;59.96
73284;BME280;61519;60.050;18.582;2023-09-07T04:26:33;102666.41;;;11.05;59.84
73284;BME280;61519;60.050;18.582;2023-09-07T04:28:58;102647.22;;;11.03;59.85
73284;BME280;61519;60.050;18.582;2023-09-07T04:31:24;102655.06;;;11.14;59.82
73284;BME280;61519;60.050;18.582;2023-09-07T04:33:52;102654.09;;;11.25;59.71
73284;BME280;61519;60.050;18.582;2023-09-07T04:36:18;102628.50;;;11.16;59.64
73284;BME280;61519;60.050;18.582;2023-09-07T04:38:43;102658.47;;;11.55;59.58
73284;BME280;61519;60.050;18.582;2023-09-07T04:41:10;102663.75;;;11.64;59.72
73284;BME280;61519;60.050;18.582;2023-09-07T04:43:36;102665.34;;;11.86;59.57
73284;BME280;61519;60.050;18.582;2023-09-07T04:46:02;102663.13;;;12.00;59.61
73284;BME280;61519;60.050;18.582;2023-09-07T04:48:28;102661.84;;;12.14;59.40
73284;BME280;61519;60.050;18.582;2023-09-07T04:51:00;102657.53;;;12.32;59.44
73284;BME280;61519;60.050;18.582;2023-09-07T04:53:28;102658.44;;;12.50;59.34
73284;BME280;61519;60.050;18.582;2023-09-07T04:55:53;102660.50;;;12.66;59.25
73284;BME280;61519;60.050;18.582;2023-09-07T04:58:19;102646.22;;;12.76;58.91
73284;BME280;61519;60.050;18.582;2023-09-07T05:00:44;102644.34;;;12.96;58.87
73284;BME280;61519;60.050;18.582;2023-09-07T05:03:09;102650.94;;;13.19;58.45
73284;BME280;61519;60.050;18.582;2023-09-07T05:05:35;102655.31;;;13.38;58.54
73284;BME280;61519;60.050;18.582;2023-09-07T05:08:00;102646.84;;;13.52;58.32
73284;BME280;61519;60.050;18.582;2023-09-07T05:10:25;102649.72;;;13.76;58.11
73284;BME280;61519;60.050;18.582;2023-09-07T05:12:51;102664.56;;;14.04;57.82
73284;BME280;61519;60.050;18.582;2023-09-07T05:15:16;102635.44;;;14.12;57.72
73284;BME280;61519;60.050;18.582;2023-09-07T05:17:42;102645.34;;;14.45;57.58
73284;BME280;61519;60.050;18.582;2023-09-07T05:20:08;102658.97;;;14.76;57.14
73284;BME280;61519;60.050;18.582;2023-09-07T05:22:34;102662.59;;;15.09;57.08
73284;BME280;61519;60.050;18.582;2023-09-07T05:25:02;102659.09;;;15.42;56.77
73284;BME280;61519;60.050;18.582;2023-09-07T05:27:28;102650.16;;;15.75;56.45
73284;BME280;61519;60.050;18.582;2023-09-07T05:29:53;102648.19;;;16.17;56.00
73284;BME280;61519;60.050;18.582;2023-09-07T05:32:19;102662.13;;;16.67;55.45
73284;BME280;61519;60.050;18.582;2023-09-07T05:34:44;102663.00;;;18.51;51.86
73284;BME280;61519;60.050;18.582;2023-09-07T05:37:09;102662.50;;;21.62;46.95
73284;BME280;61519;60.050;18.582;2023-09-07T05:39:34;102639.94;;;24.43;42.76
73284;BME280;61519;60.050;18.582;2023-09-07T05:42:00;102618.00;;;26.64;39.99
73284;BME280;61519;60.050;18.582;2023-09-07T05:44:25;102635.22;;;28.71;37.70
73284;BME280;61519;60.050;18.582;2023-09-07T05:46:50;102622.84;;;30.60;35.20
73284;BME280;61519;60.050;18.582;2023-09-07T05:49:16;102655.84;;;32.51;32.95
73284;BME280;61519;60.050;18.582;2023-09-07T05:51:41;102646.69;;;33.39;32.25
73284;BME280;61519;60.050;18.582;2023-09-07T05:54:06;102666.00;;;33.92;31.33
73284;BME280;61519;60.050;18.582;2023-09-07T05:56:32;102654.19;;;35.70;29.10
73284;BME280;61519;60.050;18.582;2023-09-07T05:58:58;102648.56;;;37.30;27.00
73284;BME280;61519;60.050;18.582;2023-09-07T06:01:24;102661.31;;;39.01;25.22
73284;BME280;61519;60.050;18.582;2023-09-07T06:03:49;102672.25;;;40.59;23.78
73284;BME280;61519;60.050;18.582;2023-09-07T06:06:15;102658.03;;;42.05;22.19
73284;BME280;61519;60.050;18.582;2023-09-07T06:08:40;102676.91;;;43.51;20.81
73284;BME280;61519;60.050;18.582;2023-09-07T06:11:05;102682.81;;;44.86;19.29
73284;BME280;61519;60.050;18.582;2023-09-07T06:13:31;102677.28;;;46.08;18.37
73284;BME280;61519;60.050;18.582;2023-09-07T06:15:56;102687.75;;;47.16;17.19
73284;BME280;61519;60.050;18.582;2023-09-07T06:18:22;102672.06;;;48.21;16.28
73284;BME280;61519;60.050;18.582;2023-09-07T06:20:47;102680.66;;;49.21;15.40
73284;BME280;61519;60.050;18.582;2023-09-07T06:23:13;102681.59;;;50.03;14.45
73284;BME280;61519;60.050;18.582;2023-09-07T06:25:38;102672.69;;;50.78;14.05
73284;BME280;61519;60.050;18.582;2023-09-07T06:28:04;102646.75;;;51.29;13.45
73284;BME280;61519;60.050;18.582;2023-09-07T06:30:29;102665.41;;;52.12;12.72
73284;BME280;61519;60.050;18.582;2023-09-07T06:32:54;102648.63;;;52.79;12.17
73284;BME280;61519;60.050;18.582;2023-09-07T06:35:21;102661.63;;;53.57;11.54
73284;BME280;61519;60.050;18.582;2023-09-07T06:37:46;102666.38;;;52.76;11.95
73284;BME280;61519;60.050;18.582;2023-09-07T06:40:12;102687.25;;;50.13;13.28
73284;BME280;61519;60.050;18.582;2023-09-07T06:42:38;102673.59;;;46.75;15.22
73284;BME280;61519;60.050;18.582;2023-09-07T06:45:04;102663.56;;;43.56;17.25
73284;BME280;61519;60.050;18.582;2023-09-07T06:47:30;102652.03;;;40.67;18.71
73284;BME280;61519;60.050;18.582;2023-09-07T06:49:56;102668.41;;;38.37;20.23
73284;BME280;61519;60.050;18.582;2023-09-07T06:52:22;102671.78;;;36.47;21.61
73284;BME280;61519;60.050;18.582;2023-09-07T06:54:51;102646.84;;;34.68;23.01
73284;BME280;61519;60.050;18.582;2023-09-07T06:57:16;102654.13;;;33.29;24.24
73284;BME280;61519;60.050;18.582;2023-09-07T06:59:41;102619.31;;;31.96;25.41
73284;BME280;61519;60.050;18.582;2023-09-07T07:02:08;102635.06;;;31.19;26.66
73284;BME280;61519;60.050;18.582;2023-09-07T07:04:33;102662.84;;;30.54;27.68
73284;BME280;61519;60.050;18.582;2023-09-07T07:07:00;102657.69;;;29.84;28.42
73284;BME280;61519;60.050;18.582;2023-09-07T07:09:29;102628.25;;;29.23;28.91
73284;BME280;61519;60.050;18.582;2023-09-07T07:11:54;102668.44;;;29.21;29.33
73284;BME280;61519;60.050;18.582;2023-09-07T07:14:20;102661.13;;;29.00;30.05
73284;BME280;61519;60.050;18.582;2023-09-07T07:16:45;102651.78;;;28.52;30.58
73284;BME280;61519;60.050;18.582;2023-09-07T07:19:10;102655.13;;;28.21;31.23
73284;BME280;61519;60.050;18.582;2023-09-07T07:21:36;102665.91;;;28.00;31.86
73284;BME280;61519;60.050;18.582;2023-09-07T07:24:01;102638.41;;;27.63;32.29
73284;BME280;61519;60.050;18.582;2023-09-07T07:26:26;102655.97;;;27.44;32.61
73284;BME280;61519;60.050;18.582;2023-09-07T07:28:52;102658.50;;;27.22;33.29
73284;BME280;61519;60.050;18.582;2023-09-07T07:31:17;102647.19;;;26.85;33.98
73284;BME280;61519;60.050;18.582;2023-09-07T07:33:42;102640.97;;;26.73;34.41
73284;BME280;61519;60.050;18.582;2023-09-07T07:36:08;102629.53;;;26.71;34.69
73284;BME280;61519;60.050;18.582;2023-09-07T07:38:34;102649.78;;;26.69;35.14
73284;BME280;61519;60.050;18.582;2023-09-07T07:41:00;102650.50;;;26.53;35.27
73284;BME280;61519;60.050;18.582;2023-09-07T07:43:25;102655.94;;;26.41;35.73
73284;BME280;61519;60.050;18.582;2023-09-07T07:45:54;102641.00;;;26.27;36.00
73284;BME280;61519;60.050;18.582;2023-09-07T07:48:19;102631.09;;;26.44;36.12
73284;BME280;61519;60.050;18.582;2023-09-07T07:50:45;102635.50;;;27.25;35.30
73284;BME280;61519;60.050;18.582;2023-09-07T07:53:10;102637.72;;;28.01;34.60
73284;BME280;61519;60.050;18.582;2023-09-07T07:55:37;102644.25;;;29.19;33.71
73284;BME280;61519;60.050;18.582;2023-09-07T07:58:07;102636.47;;;29.81;32.99
73284;BME280;61519;60.050;18.582;2023-09-07T08:00:34;102647.63;;;29.85;33.33
73284;BME280;61519;60.050;18.582;2023-09-07T08:03:00;102626.31;;;29.45;33.66
73284;BME280;61519;60.050;18.582;2023-09-07T08:05:27;102632.97;;;29.59;33.71
73284;BME280;61519;60.050;18.582;2023-09-07T08:07:52;102582.69;;;29.35;33.67
73284;BME280;61519;60.050;18.582;2023-09-07T08:10:18;102631.03;;;29.86;33.51
73284;BME280;61519;60.050;18.582;2023-09-07T08:12:44;102604.50;;;31.07;32.03
73284;BME280;61519;60.050;18.582;2023-09-07T08:15:09;102605.47;;;33.64;29.44
73284;BME280;61519;60.050;18.582;2023-09-07T08:17:35;102640.44;;;35.89;27.58
73284;BME280;61519;60.050;18.582;2023-09-07T08:20:01;102626.44;;;36.17;27.21
73284;BME280;61519;60.050;18.582;2023-09-07T08:22:26;102619.72;;;36.37;26.90
73284;BME280;61519;60.050;18.582;2023-09-07T08:24:53;102639.28;;;36.22;27.16
73284;BME280;61519;60.050;18.582;2023-09-07T08:27:19;102624.72;;;35.89;27.56
73284;BME280;61519;60.050;18.582;2023-09-07T08:29:45;102624.22;;;36.60;26.42
73284;BME280;61519;60.050;18.582;2023-09-07T08:32:17;102621.56;;;38.46;24.75
73284;BME280;61519;60.050;18.582;2023-09-07T08:34:42;102628.97;;;39.70;23.98
73284;BME280;61519;60.050;18.582;2023-09-07T08:37:08;102631.50;;;40.68;22.90
73284;BME280;61519;60.050;18.582;2023-09-07T08:39:36;102643.88;;;40.91;22.19
73284;BME280;61519;60.050;18.582;2023-09-07T08:42:02;102639.97;;;40.42;22.64
73284;BME280;61519;60.050;18.582;2023-09-07T08:44:29;102641.94;;;41.33;21.55
73284;BME280;61519;60.050;18.582;2023-09-07T08:46:54;102622.59;;;41.77;21.13
73284;BME280;61519;60.050;18.582;2023-09-07T08:49:20;102621.06;;;41.35;21.35
73284;BME280;61519;60.050;18.582;2023-09-07T08:51:46;102617.19;;;40.66;21.85
73284;BME280;61519;60.050;18.582;2023-09-07T08:54:12;102624.78;;;41.39;20.88
73284;BME280;61519;60.050;18.582;2023-09-07T08:56:37;102614.78;;;44.02;18.78
73284;BME280;61519;60.050;18.582;2023-09-07T08:59:02;102621.47;;;46.08;17.35
73284;BME280;61519;60.050;18.582;2023-09-07T09:01:30;102625.06;;;47.97;16.20
73284;BME280;61519;60.050;18.582;2023-09-07T09:03:57;102621.06;;;49.77;14.62
73284;BME280;61519;60.050;18.582;2023-09-07T09:06:22;102623.22;;;51.60;13.93
73284;BME280;61519;60.050;18.582;2023-09-07T09:08:49;102627.72;;;51.51;14.03
73284;BME280;61519;60.050;18.582;2023-09-07T09:11:18;102623.50;;;52.21;13.08
73284;BME280;61519;60.050;18.582;2023-09-07T09:13:44;102610.88;;;53.00;12.70
73284;BME280;61519;60.050;18.582;2023-09-07T09:16:10;102609.16;;;54.25;11.66
73284;BME280;61519;60.050;18.582;2023-09-07T09:18:36;102613.75;;;55.46;10.90
73284;BME280;61519;60.050;18.582;2023-09-07T09:21:01;102616.84;;;54.83;11.12
73284;BME280;61519;60.050;18.582;2023-09-07T09:23:39;102612.56;;;54.75;10.89
73284;BME280;61519;60.050;18.582;2023-09-07T09:26:05;102620.03;;;54.85;11.03
73284;BME280;61519;60.050;18.582;2023-09-07T09:28:34;102613.31;;;54.40;10.83
73284;BME280;61519;60.050;18.582;2023-09-07T09:31:00;102595.34;;;55.38;10.09
73284;BME280;61519;60.050;18.582;2023-09-07T09:33:26;102594.09;;;56.16;9.97
73284;BME280;61519;60.050;18.582;2023-09-07T09:35:53;102592.63;;;55.95;9.46
73284;BME280;61519;60.050;18.582;2023-09-07T09:38:19;102571.81;;;56.43;8.85
73284;BME280;61519;60.050;18.582;2023-09-07T09:40:45;102612.28;;;57.48;8.45
73284;BME280;61519;60.050;18.582;2023-09-07T09:43:11;102606.66;;;58.03;8.37
73284;BME280;61519;60.050;18.582;2023-09-07T09:45:37;102620.09;;;58.77;8.03
73284;BME280;61519;60.050;18.582;2023-09-07T09:48:05;102582.41;;;58.94;7.48
73284;BME280;61519;60.050;18.582;2023-09-07T09:50:31;102596.59;;;59.34;7.60
73284;BME280;61519;60.050;18.582;2023-09-07T09:52:57;102593.91;;;59.49;7.63
73284;BME280;61519;60.050;18.582;2023-09-07T09:55:23;102560.22;;;59.65;7.20
73284;BME280;61519;60.050;18.582;2023-09-07T09:57:49;102564.03;;;60.08;6.99
73284;BME280;61519;60.050;18.582;2023-09-07T10:00:16;102579.69;;;60.63;6.77
73284;BME280;61519;60.050;18.582;2023-09-07T10:02:50;102576.78;;;61.14;6.51
73284;BME280;61519;60.050;18.582;2023-09-07T10:05:17;102550.28;;;61.52;6.41
73284;BME280;61519;60.050;18.582;2023-09-07T10:07:44;102592.28;;;62.13;6.30
73284;BME280;61519;60.050;18.582;2023-09-07T10:10:13;102585.19;;;61.56;6.01
73284;BME280;61519;60.050;18.582;2023-09-07T10:12:41;102537.44;;;59.56;6.91
73284;BME280;61519;60.050;18.582;2023-09-07T10:15:07;102545.19;;;57.75;7.63
73284;BME280;61519;60.050;18.582;2023-09-07T10:17:32;102545.19;;;58.18;7.14
73284;BME280;61519;60.050;18.582;2023-09-07T10:20:04;102566.78;;;57.60;7.62
73284;BME280;61519;60.050;18.582;2023-09-07T10:22:32;102553.13;;;56.04;8.15
73284;BME280;61519;60.050;18.582;2023-09-07T10:24:58;102553.22;;;55.72;8.45
73284;BME280;61519;60.050;18.582;2023-09-07T10:27:24;102556.53;;;54.70;8.45
73284;BME280;61519;60.050;18.582;2023-09-07T10:29:52;102559.53;;;54.04;8.59
73284;BME280;61519;60.050;18.582;2023-09-07T10:32:18;102537.41;;;52.80;9.21
73284;BME280;61519;60.050;18.582;2023-09-07T10:34:43;102542.34;;;53.26;9.09
73284;BME280;61519;60.050;18.582;2023-09-07T10:37:13;102544.22;;;54.02;8.82
73284;BME280;61519;60.050;18.582;2023-09-07T10:39:43;102531.00;;;54.38;8.50
73284;BME280;61519;60.050;18.582;2023-09-07T10:42:25;102547.00;;;54.25;8.68
73284;BME280;61519;60.050;18.582;2023-09-07T10:44:51;102533.50;;;54.52;8.76
73284;BME280;61519;60.050;18.582;2023-09-07T10:47:16;102538.00;;;54.30;9.19
73284;BME280;61519;60.050;18.582;2023-09-07T10:49:42;102532.03;;;55.00;8.34
73284;BME280;61519;60.050;18.582;2023-09-07T10:52:07;102529.16;;;53.89;9.24
73284;BME280;61519;60.050;18.582;2023-09-07T10:54:33;102524.84;;;51.91;9.68
73284;BME280;61519;60.050;18.582;2023-09-07T10:57:07;102517.88;;;50.31;10.31
73284;BME280;61519;60.050;18.582;2023-09-07T10:59:32;102498.78;;;49.13;10.98
73284;BME280;61519;60.050;18.582;2023-09-07T11:02:04;102482.97;;;47.73;11.87
73284;BME280;61519;60.050;18.582;2023-09-07T11:04:29;102489.66;;;46.48;12.43
73284;BME280;61519;60.050;18.582;2023-09-07T11:06:54;102479.53;;;45.80;12.97
73284;BME280;61519;60.050;18.582;2023-09-07T11:09:20;102498.06;;;45.01;13.83
73284;BME280;61519;60.050;18.582;2023-09-07T11:11:46;102479.44;;;44.29;13.87
73284;BME280;61519;60.050;18.582;2023-09-07T11:14:12;102486.56;;;43.29;14.69
73284;BME280;61519;60.050;18.582;2023-09-07T11:16:40;102492.19;;;42.22;15.97
73284;BME280;61519;60.050;18.582;2023-09-07T11:19:07;102479.81;;;41.59;16.34
73284;BME280;61519;60.050;18.582;2023-09-07T11:21:34;102481.41;;;40.71;16.54
73284;BME280;61519;60.050;18.582;2023-09-07T11:24:01;102482.44;;;39.87;17.18
73284;BME280;61519;60.050;18.582;2023-09-07T11:26:26;102474.06;;;39.12;17.99
73284;BME280;61519;60.050;18.582;2023-09-07T11:28:51;102447.47;;;38.47;18.69
73284;BME280;61519;60.050;18.582;2023-09-07T11:31:20;102450.63;;;37.81;19.04
73284;BME280;61519;60.050;18.582;2023-09-07T11:33:47;102472.78;;;37.15;19.79
73284;BME280;61519;60.050;18.582;2023-09-07T11:36:12;102447.28;;;36.29;20.40
73284;BME280;61519;60.050;18.582;2023-09-07T11:38:37;102474.59;;;35.71;21.19
73284;BME280;61519;60.050;18.582;2023-09-07T11:41:03;102468.91;;;35.22;21.45
73284;BME280;61519;60.050;18.582;2023-09-07T11:43:29;102462.56;;;34.89;22.06
73284;BME280;61519;60.050;18.582;2023-09-07T11:45:54;102460.81;;;34.61;22.37
73284;BME280;61519;60.050;18.582;2023-09-07T11:48:20;102452.47;;;34.29;22.83
73284;BME280;61519;60.050;18.582;2023-09-07T11:50:45;102446.31;;;33.95;23.11
73284;BME280;61519;60.050;18.582;2023-09-07T11:53:10;102449.13;;;33.66;23.51
73284;BME280;61519;60.050;18.582;2023-09-07T11:55:36;102448.13;;;33.28;24.07
73284;BME280;61519;60.050;18.582;2023-09-07T11:58:03;102414.19;;;32.67;24.63
73284;BME280;61519;60.050;18.582;2023-09-07T12:00:30;102429.09;;;32.46;24.81
73284;BME280;61519;60.050;18.582;2023-09-07T12:02:56;102451.53;;;32.33;25.26
73284;BME280;61519;60.050;18.582;2023-09-07T12:05:21;102407.50;;;31.95;25.37
73284;BME280;61519;60.050;18.582;2023-09-07T12:07:47;102424.97;;;31.89;25.93
73284;BME280;61519;60.050;18.582;2023-09-07T12:10:12;102438.91;;;31.88;26.11
73284;BME280;61519;60.050;18.582;2023-09-07T12:12:42;102425.59;;;31.66;26.15
73284;BME280;61519;60.050;18.582;2023-09-07T12:15:09;102433.00;;;31.51;26.55
73284;BME280;61519;60.050;18.582;2023-09-07T12:17:36;102431.66;;;31.23;26.92
73284;BME280;61519;60.050;18.582;2023-09-07T12:20:02;102419.41;;;31.05;27.10
73284;BME280;61519;60.050;18.582;2023-09-07T12:22:29;102430.00;;;30.92;27.45
73284;BME280;61519;60.050;18.582;2023-09-07T12:24:55;102390.72;;;30.63;27.75
73284;BME280;61519;60.050;18.582;2023-09-07T12:27:21;102410.91;;;30.62;28.04
73284;BME280;61519;60.050;18.582;2023-09-07T12:29:46;102405.44;;;30.47;28.36
73284;BME280;61519;60.050;18.582;2023-09-07T12:32:11;102408.94;;;30.32;28.81
73284;BME280;61519;60.050;18.582;2023-09-07T12:34:37;102405.59;;;30.15;28.83